createdAt,value
2019-03-08T00:02:21.107Z,16.40
2019-03-08T00:04:51.422Z,16.30
2019-03-08T00:07:21.709Z,16.30
2019-03-08T00:09:52.203Z,16.40
2019-03-08T00:12:22.349Z,16.30
2019-03-08T00:14:52.556Z,16.30
2019-03-08T00:17:22.717Z,16.30
2019-03-08T00:19:53.175Z,16.30
2019-03-08T00:22:23.301Z,16.30
2019-03-08T00:24:53.494Z,16.30
2019-03-08T00:27:23.509Z,16.30
2019-03-08T00:29:53.655Z,16.40
2019-03-08T00:32:23.769Z,16.30
2019-03-08T00:34:54.106Z,16.40
2019-03-08T00:37:24.165Z,16.30
2019-03-08T00:39:54.543Z,16.30
2019-03-08T00:42:24.685Z,16.40
2019-03-08T00:44:54.832Z,16.40
2019-03-08T00:47:24.895Z,16.40
2019-03-08T00:49:55.634Z,16.30
2019-03-08T00:52:25.772Z,16.30
2019-03-08T00:54:56.067Z,16.30
2019-03-08T00:57:26.260Z,16.30
2019-03-08T00:59:56.819Z,16.20
2019-03-08T01:02:27.185Z,16.30
2019-03-08T01:04:57.260Z,16.30
2019-03-08T01:07:27.534Z,16.20
2019-03-08T01:09:57.752Z,16.30
2019-03-08T01:12:28.253Z,16.20
2019-03-08T01:14:58.383Z,16.20
2019-03-08T01:17:28.572Z,16.20
2019-03-08T01:19:59.117Z,16.10
2019-03-08T01:22:29.355Z,16.10
2019-03-08T01:24:59.867Z,16.10
2019-03-08T01:27:30.098Z,16.10
2019-03-08T01:30:00.120Z,16.10
2019-03-08T01:32:30.242Z,16.10
2019-03-08T01:35:00.366Z,16.00
2019-03-08T01:37:30.463Z,16.00
2019-03-08T01:40:01.121Z,16.00
2019-03-08T01:42:31.834Z,16.00
2019-03-08T01:45:03.839Z,16.00
2019-03-08T01:47:34.049Z,16.00
2019-03-08T01:50:06.633Z,16.00
2019-03-08T01:52:36.781Z,16.00
2019-03-08T01:55:07.535Z,16.00
2019-03-08T01:57:38.048Z,16.00
2019-03-08T02:00:19.309Z,16.00
2019-03-08T02:02:49.457Z,16.00
2019-03-08T02:05:20.252Z,16.00
2019-03-08T02:07:50.463Z,16.00
2019-03-08T02:10:20.613Z,16.00
2019-03-08T02:12:50.870Z,15.90
2019-03-08T02:15:21.418Z,15.90
2019-03-08T02:17:51.744Z,15.90
2019-03-08T02:20:22.860Z,15.80
2019-03-08T02:22:53.078Z,15.80
2019-03-08T02:25:23.090Z,15.80
2019-03-08T02:27:53.217Z,15.80
2019-03-08T02:30:23.404Z,15.80
2019-03-08T02:32:53.898Z,15.70
2019-03-08T02:35:24.181Z,15.70
2019-03-08T02:37:54.230Z,15.70
2019-03-08T02:40:30.104Z,15.70
2019-03-08T02:43:02.507Z,15.60
2019-03-08T02:45:32.775Z,15.70
2019-03-08T02:48:02.913Z,15.70
2019-03-08T02:50:34.464Z,15.70
2019-03-08T02:53:05.179Z,15.70
2019-03-08T02:55:35.597Z,15.70
2019-03-08T02:58:05.799Z,15.70
2019-03-08T03:00:39.740Z,15.70
2019-03-08T03:03:09.906Z,15.70
2019-03-08T03:05:40.400Z,15.70
2019-03-08T03:08:10.453Z,15.60
2019-03-08T03:10:40.917Z,15.60
2019-03-08T03:13:11.150Z,15.60
2019-03-08T03:15:41.370Z,15.60
2019-03-08T03:18:12.734Z,15.60
2019-03-08T03:20:43.034Z,15.50
2019-03-08T03:23:13.104Z,15.50
2019-03-08T03:25:43.269Z,15.50
2019-03-08T03:28:13.627Z,15.50
2019-03-08T03:30:43.703Z,15.50
2019-03-08T03:33:13.951Z,15.50
2019-03-08T03:35:44.479Z,15.50
2019-03-08T03:38:14.822Z,15.50
2019-03-08T03:40:45.064Z,15.50
2019-03-08T03:43:15.515Z,15.50
2019-03-08T03:45:45.740Z,15.50
2019-03-08T03:48:15.827Z,15.50
2019-03-08T03:50:45.941Z,15.50
2019-03-08T03:53:16.542Z,15.50
2019-03-08T03:55:46.692Z,15.50
2019-03-08T03:58:17.302Z,15.50
2019-03-08T04:00:47.365Z,15.40
2019-03-08T04:03:18.596Z,15.30
2019-03-08T04:05:48.802Z,15.30
2019-03-08T04:08:18.962Z,15.30
2019-03-08T04:10:49.031Z,15.30
2019-03-08T04:13:19.568Z,15.20
2019-03-08T04:15:50.181Z,15.20
2019-03-08T04:18:20.731Z,15.20
2019-03-08T04:20:50.899Z,15.20
2019-03-08T04:23:21.040Z,15.20
2019-03-08T04:25:51.483Z,15.20
2019-03-08T04:28:21.641Z,15.20
2019-03-08T04:30:52.019Z,15.20
2019-03-08T04:33:22.556Z,15.20
2019-03-08T04:35:52.687Z,15.10
2019-03-08T04:38:23.225Z,15.10
2019-03-08T04:40:53.747Z,15.10
2019-03-08T04:43:23.959Z,15.10
2019-03-08T04:45:54.112Z,15.10
2019-03-08T04:48:24.181Z,15.00
2019-03-08T04:50:54.348Z,15.00
2019-03-08T04:53:24.952Z,15.00
2019-03-08T04:55:55.117Z,15.00
2019-03-08T04:58:25.556Z,15.00
2019-03-08T05:00:56.128Z,14.90
2019-03-08T05:03:26.269Z,14.90
2019-03-08T05:05:56.674Z,14.90
2019-03-08T05:08:26.788Z,14.80
2019-03-08T05:10:56.994Z,14.90
2019-03-08T05:13:27.089Z,14.80
2019-03-08T05:15:57.155Z,14.80
2019-03-08T05:18:27.367Z,14.80
2019-03-08T05:20:57.372Z,14.80
2019-03-08T05:23:27.454Z,14.80
2019-03-08T05:25:57.544Z,14.80
2019-03-08T05:28:27.619Z,14.80
2019-03-08T05:30:57.975Z,14.80
2019-03-08T05:33:28.451Z,14.80
2019-03-08T05:35:59.042Z,14.80
2019-03-08T05:38:29.198Z,14.80
2019-03-08T05:40:59.568Z,14.80
2019-03-08T05:43:29.659Z,14.70
2019-03-08T05:45:59.660Z,14.70
2019-03-08T05:48:29.906Z,14.70
2019-03-08T05:50:59.966Z,14.70
2019-03-08T05:53:30.577Z,14.60
2019-03-08T05:56:00.669Z,14.50
2019-03-08T05:58:30.984Z,14.50
2019-03-08T06:01:01.187Z,14.50
2019-03-08T06:03:31.345Z,14.50
2019-03-08T06:06:02.021Z,14.50
2019-03-08T06:08:32.156Z,14.40
2019-03-08T06:11:02.243Z,13.90
2019-03-08T06:13:32.414Z,12.50
2019-03-08T06:16:02.650Z,11.60
2019-03-08T06:18:33.115Z,11.00
2019-03-08T06:21:03.321Z,10.60
2019-03-08T06:23:33.399Z,10.30
2019-03-08T06:26:04.036Z,10.20
2019-03-08T06:28:34.411Z,10.20
2019-03-08T06:31:05.033Z,10.30
2019-03-08T06:33:35.264Z,10.40
2019-03-08T06:36:05.385Z,10.40
2019-03-08T06:38:36.068Z,10.50
2019-03-08T06:41:06.194Z,10.80
2019-03-08T06:43:36.698Z,11.00
2019-03-08T06:46:06.915Z,11.30
2019-03-08T06:48:36.930Z,11.70
2019-03-08T06:51:07.079Z,12.00
2019-03-08T06:53:37.287Z,12.30
2019-03-08T06:56:07.691Z,12.80
2019-03-08T06:58:39.473Z,13.10
2019-03-08T07:01:10.942Z,13.20
2019-03-08T07:03:40.999Z,13.50
2019-03-08T07:06:11.444Z,13.60
2019-03-08T07:08:41.955Z,13.80
2019-03-08T07:11:12.087Z,14.00
2019-03-08T07:13:42.233Z,14.00
2019-03-08T07:16:13.377Z,14.10
2019-03-08T07:18:44.197Z,14.10
2019-03-08T07:21:16.067Z,14.40
2019-03-08T07:23:48.297Z,14.80
2019-03-08T07:26:26.900Z,14.90
2019-03-08T07:29:10.971Z,15.10
2019-03-08T07:31:48.327Z,15.40
2019-03-08T07:34:26.065Z,16.30
2019-03-08T07:36:58.212Z,18.10
2019-03-08T07:39:33.113Z,20.00
2019-03-08T07:42:17.348Z,21.50
2019-03-08T07:45:05.346Z,22.60
2019-03-08T07:47:37.212Z,23.40
2019-03-08T07:50:28.103Z,24.40
2019-03-08T07:53:09.297Z,24.90
2019-03-08T07:55:57.052Z,25.60
2019-03-08T07:58:28.883Z,26.00
2019-03-08T08:01:03.937Z,26.20
2019-03-08T08:03:38.355Z,26.60
2019-03-08T08:06:10.148Z,27.00
2019-03-08T08:08:58.772Z,26.80
2019-03-08T08:11:33.992Z,26.80
2019-03-08T08:14:05.810Z,26.90
2019-03-08T08:16:40.902Z,26.90
2019-03-08T08:19:30.885Z,27.20
2019-03-08T08:22:06.832Z,27.60
2019-03-08T08:24:40.971Z,28.00
2019-03-08T08:27:16.185Z,28.90
2019-03-08T08:29:50.829Z,29.20
2019-03-08T08:32:22.608Z,29.50
2019-03-08T08:35:06.784Z,29.40
2019-03-08T08:37:38.574Z,29.70
2019-03-08T08:40:28.176Z,30.00
2019-03-08T08:43:16.388Z,30.30
2019-03-08T08:45:51.535Z,30.90
2019-03-08T08:48:35.409Z,31.60
2019-03-08T08:51:10.044Z,30.70
2019-03-08T08:53:42.489Z,31.30
2019-03-08T08:56:30.763Z,31.80
2019-03-08T08:59:05.485Z,32.30
2019-03-08T09:01:40.598Z,32.00
2019-03-08T09:04:27.399Z,32.70
2019-03-08T09:07:05.458Z,32.80
2019-03-08T09:09:37.871Z,33.70
2019-03-08T09:12:19.063Z,33.20
2019-03-08T09:14:53.905Z,33.00
2019-03-08T09:17:37.922Z,34.20
2019-03-08T09:20:26.841Z,35.00
2019-03-08T09:23:04.498Z,35.30
2019-03-08T09:25:37.574Z,35.80
2019-03-08T09:28:09.382Z,36.00
2019-03-08T09:30:47.129Z,36.20
2019-03-08T09:33:18.926Z,35.90
2019-03-08T09:36:03.763Z,35.80
2019-03-08T09:38:51.856Z,36.20
2019-03-08T09:41:23.643Z,35.60
2019-03-08T09:43:56.141Z,34.60
2019-03-08T09:46:28.298Z,35.00
2019-03-08T09:49:00.479Z,35.50
2019-03-08T09:51:48.879Z,35.80
2019-03-08T09:54:26.919Z,35.10
2019-03-08T09:57:15.153Z,35.60
2019-03-08T09:59:55.888Z,35.80
2019-03-08T10:02:27.536Z,35.80
2019-03-08T10:05:07.986Z,36.20
2019-03-08T10:07:40.120Z,37.10
2019-03-08T10:10:15.259Z,36.30
2019-03-08T10:13:03.111Z,36.20
2019-03-08T10:15:38.023Z,34.40
2019-03-08T10:18:19.027Z,35.50
2019-03-08T10:20:51.052Z,36.00
2019-03-08T10:23:38.186Z,36.10
2019-03-08T10:26:26.590Z,36.30
2019-03-08T10:29:07.783Z,36.80
2019-03-08T10:31:39.650Z,37.30
2019-03-08T10:34:11.567Z,37.10
2019-03-08T10:37:00.079Z,35.30
2019-03-08T10:39:50.260Z,35.40
2019-03-08T10:42:27.988Z,36.50
2019-03-08T10:45:02.528Z,36.80
2019-03-08T10:47:56.112Z,37.00
2019-03-08T10:50:41.219Z,35.70
2019-03-08T10:53:19.206Z,36.80
2019-03-08T10:55:51.092Z,37.40
2019-03-08T10:58:29.135Z,38.10
2019-03-08T11:01:17.185Z,38.00
2019-03-08T11:03:58.301Z,38.30
2019-03-08T11:06:45.150Z,39.00
2019-03-08T11:09:19.364Z,38.40
2019-03-08T11:11:54.059Z,38.10
2019-03-08T11:14:28.244Z,38.10
2019-03-08T11:17:02.708Z,37.90
2019-03-08T11:19:34.869Z,38.00
2019-03-08T11:22:16.467Z,37.80
2019-03-08T11:24:51.449Z,37.10
2019-03-08T11:27:35.453Z,32.30
2019-03-08T11:30:10.545Z,29.70
2019-03-08T11:32:46.368Z,32.60
2019-03-08T11:35:21.493Z,35.20
2019-03-08T11:37:53.648Z,36.20
2019-03-08T11:40:34.581Z,33.20
2019-03-08T11:43:22.699Z,29.80
2019-03-08T11:46:00.216Z,27.60
2019-03-08T11:48:32.307Z,26.00
2019-03-08T11:51:03.961Z,25.40
2019-03-08T11:53:38.803Z,24.80
2019-03-08T11:56:10.529Z,24.40
2019-03-08T11:58:48.409Z,24.20
2019-03-08T12:01:20.618Z,24.10
2019-03-08T12:04:08.665Z,24.20
2019-03-08T12:06:49.776Z,24.10
2019-03-08T12:09:22.003Z,24.10
2019-03-08T12:12:10.672Z,24.00
2019-03-08T12:14:42.844Z,23.80
2019-03-08T12:17:17.559Z,23.60
2019-03-08T12:19:49.646Z,23.50
2019-03-08T12:22:21.440Z,23.30
2019-03-08T12:24:53.969Z,23.00
2019-03-08T12:27:26.252Z,22.90
2019-03-08T12:29:58.508Z,22.90
2019-03-08T12:32:33.064Z,22.70
2019-03-08T12:35:10.545Z,22.70
2019-03-08T12:37:50.954Z,22.90
2019-03-08T12:40:41.479Z,22.90
2019-03-08T12:43:13.972Z,22.70
2019-03-08T12:45:57.555Z,22.70
2019-03-08T12:48:46.068Z,22.60
2019-03-08T12:51:20.643Z,22.40
2019-03-08T12:54:09.025Z,22.50
2019-03-08T12:56:41.086Z,22.40
2019-03-08T12:59:13.246Z,22.30
2019-03-08T13:01:56.974Z,22.30
2019-03-08T13:04:31.632Z,22.40
2019-03-08T13:07:03.580Z,22.40
2019-03-08T13:09:35.290Z,22.20
2019-03-08T13:12:05.529Z,21.90
2019-03-08T13:14:35.594Z,21.90
2019-03-08T13:17:06.100Z,21.40
2019-03-08T13:19:36.636Z,21.50
2019-03-08T13:22:06.763Z,21.50
2019-03-08T13:24:36.922Z,21.60
2019-03-08T13:27:07.328Z,21.50
2019-03-08T13:29:37.561Z,21.60
2019-03-08T13:32:07.818Z,21.50
2019-03-08T13:34:37.874Z,21.40
2019-03-08T13:37:08.117Z,21.30
2019-03-08T13:39:38.249Z,21.20
2019-03-08T13:42:08.419Z,21.10
2019-03-08T13:44:38.405Z,21.00
2019-03-08T13:47:08.661Z,20.90
2019-03-08T13:49:38.804Z,20.90
2019-03-08T13:52:09.221Z,20.90
2019-03-08T13:54:39.282Z,20.80
2019-03-08T13:57:09.863Z,20.90
2019-03-08T13:59:41.222Z,20.90
2019-03-08T14:02:12.888Z,20.80
2019-03-08T14:04:43.304Z,20.60
2019-03-08T14:07:13.358Z,20.80
2019-03-08T14:09:43.438Z,20.70
2019-03-08T14:12:13.889Z,20.70
2019-03-08T14:14:43.974Z,20.70
2019-03-08T14:17:15.247Z,20.70
2019-03-08T14:19:45.372Z,20.70
2019-03-08T14:22:15.491Z,20.70
2019-03-08T14:24:45.986Z,20.70
2019-03-08T14:27:16.111Z,20.60
2019-03-08T14:29:46.273Z,20.50
2019-03-08T14:32:16.858Z,20.40
2019-03-08T14:34:49.582Z,20.40
2019-03-08T14:37:19.911Z,20.50
2019-03-08T14:39:50.699Z,20.30
2019-03-08T14:42:22.477Z,20.30
2019-03-08T14:44:54.614Z,20.20
2019-03-08T14:47:29.576Z,20.10
2019-03-08T14:50:01.248Z,20.00
2019-03-08T14:52:31.630Z,20.10
2019-03-08T14:55:01.763Z,20.20
2019-03-08T14:57:32.019Z,20.30
2019-03-08T15:00:02.097Z,20.30
2019-03-08T15:02:33.737Z,20.20
2019-03-08T15:05:11.290Z,20.10
2019-03-08T15:07:37.323Z,20.10
2019-03-08T15:10:13.557Z,20.10
2019-03-08T15:12:49.062Z,20.10
2019-03-08T15:15:17.261Z,20.10
2019-03-08T15:17:49.553Z,20.10
2019-03-08T15:20:20.510Z,20.00
2019-03-08T15:22:50.911Z,20.00
2019-03-08T15:25:21.124Z,20.00
2019-03-08T15:27:51.541Z,20.00
2019-03-08T15:30:22.090Z,20.00
2019-03-08T15:32:52.335Z,20.00
2019-03-08T15:35:22.604Z,20.00
2019-03-08T15:37:53.158Z,20.00
2019-03-08T15:40:23.894Z,19.90
2019-03-08T15:42:54.100Z,20.00
2019-03-08T15:45:24.239Z,19.80
2019-03-08T15:47:54.313Z,19.90
2019-03-08T15:50:24.370Z,19.90
2019-03-08T15:52:54.569Z,19.90
2019-03-08T15:55:24.726Z,19.80
2019-03-08T15:57:55.337Z,19.70
2019-03-08T16:00:25.623Z,19.60
2019-03-08T16:02:56.206Z,19.60
2019-03-08T16:05:28.468Z,19.60
2019-03-08T16:08:01.653Z,19.60
2019-03-08T16:10:29.981Z,19.50
2019-03-08T16:13:00.135Z,19.50
2019-03-08T16:15:30.266Z,19.50
2019-03-08T16:18:00.552Z,19.40
2019-03-08T16:20:31.045Z,19.40
2019-03-08T16:23:02.678Z,19.30
2019-03-08T16:25:33.414Z,19.30
2019-03-08T16:28:03.653Z,19.20
2019-03-08T16:30:51.928Z,19.10
2019-03-08T16:33:25.785Z,19.00
2019-03-08T16:35:59.389Z,18.90
2019-03-08T16:38:46.504Z,18.90
2019-03-08T16:41:18.065Z,18.80
2019-03-08T16:44:05.960Z,18.80
2019-03-08T16:46:43.684Z,18.70
2019-03-08T16:49:18.841Z,18.50
2019-03-08T16:51:57.328Z,18.50
2019-03-08T16:54:28.851Z,18.40
2019-03-08T16:57:00.970Z,18.30
2019-03-08T16:59:35.633Z,18.20
2019-03-08T17:02:22.618Z,18.10
2019-03-08T17:04:54.870Z,17.90
2019-03-08T17:07:38.678Z,17.80
2019-03-08T17:10:14.061Z,17.80
2019-03-08T17:12:46.180Z,17.60
2019-03-08T17:15:29.876Z,17.60
2019-03-08T17:18:07.306Z,17.50
2019-03-08T17:20:45.039Z,17.40
2019-03-08T17:23:16.930Z,17.30
2019-03-08T17:26:06.979Z,17.20
2019-03-08T17:28:49.058Z,17.20
2019-03-08T17:31:33.200Z,17.10
2019-03-08T17:34:11.167Z,16.90
2019-03-08T17:37:01.013Z,16.90
2019-03-08T17:39:32.888Z,16.80
2019-03-08T17:42:13.871Z,16.80
2019-03-08T17:44:51.357Z,16.60
2019-03-08T17:47:23.071Z,16.40
2019-03-08T17:49:54.869Z,16.50
2019-03-08T17:52:43.730Z,16.30
2019-03-08T17:55:21.761Z,16.20
2019-03-08T17:58:08.709Z,16.10
2019-03-08T18:00:41.228Z,16.00
2019-03-08T18:03:15.730Z,15.80
2019-03-08T18:05:47.522Z,15.70
2019-03-08T18:08:36.059Z,15.60
2019-03-08T18:11:10.627Z,15.50
2019-03-08T18:13:48.187Z,15.60
2019-03-08T18:16:22.802Z,15.60
2019-03-08T18:19:00.338Z,15.60
2019-03-08T18:21:44.186Z,15.60
2019-03-08T18:24:32.420Z,15.60
2019-03-08T18:27:09.726Z,15.50
2019-03-08T18:29:53.793Z,15.40
2019-03-08T18:32:31.134Z,15.30
2019-03-08T18:35:21.113Z,15.30
2019-03-08T18:38:09.447Z,15.20
2019-03-08T18:40:44.179Z,15.10
2019-03-08T18:43:17.279Z,15.20
2019-03-08T18:45:52.088Z,15.00
2019-03-08T18:48:26.717Z,14.80
2019-03-08T18:51:14.043Z,14.90
2019-03-08T18:53:46.208Z,14.80
2019-03-08T18:56:34.342Z,14.60
2019-03-08T18:59:13.075Z,14.50
2019-03-08T19:01:44.851Z,14.60
2019-03-08T19:04:22.332Z,14.60
2019-03-08T19:07:07.071Z,14.50
2019-03-08T19:09:44.776Z,14.50
2019-03-08T19:12:33.234Z,14.40
2019-03-08T19:15:10.000Z,14.30
2019-03-08T19:17:50.515Z,14.20
2019-03-08T19:20:22.242Z,14.20
2019-03-08T19:22:56.967Z,14.20
2019-03-08T19:25:44.008Z,14.10
2019-03-08T19:28:15.866Z,14.10
2019-03-08T19:30:50.405Z,13.90
2019-03-08T19:33:22.172Z,13.90
2019-03-08T19:36:09.230Z,13.80
2019-03-08T19:38:47.476Z,13.70
2019-03-08T19:41:25.174Z,13.70
2019-03-08T19:44:13.388Z,13.60
2019-03-08T19:46:48.621Z,13.60
2019-03-08T19:49:20.328Z,13.50
2019-03-08T19:52:10.412Z,13.40
2019-03-08T19:54:51.370Z,13.40
2019-03-08T19:57:38.458Z,13.50
2019-03-08T20:00:28.338Z,13.30
2019-03-08T20:03:00.400Z,13.50
2019-03-08T20:05:34.997Z,13.60
2019-03-08T20:08:09.861Z,13.70
2019-03-08T20:10:54.212Z,13.70
2019-03-08T20:13:42.122Z,13.60
2019-03-08T20:16:20.176Z,13.50
2019-03-08T20:18:59.059Z,13.40
2019-03-08T20:21:47.328Z,13.40
2019-03-08T20:24:21.722Z,13.40
2019-03-08T20:26:56.426Z,13.30
2019-03-08T20:29:46.559Z,13.20
2019-03-08T20:32:21.681Z,13.20
2019-03-08T20:35:02.758Z,13.20
2019-03-08T20:37:51.424Z,13.20
2019-03-08T20:40:23.257Z,13.30
2019-03-08T20:42:55.455Z,13.30
2019-03-08T20:45:30.284Z,13.20
2019-03-08T20:48:01.443Z,13.10
2019-03-08T20:50:32.971Z,13.00
2019-03-08T20:53:03.124Z,13.00
2019-03-08T20:55:33.337Z,12.90
2019-03-08T20:58:03.682Z,12.80
2019-03-08T21:00:33.854Z,12.80
2019-03-08T21:03:04.356Z,12.70
2019-03-08T21:05:35.954Z,12.70
2019-03-08T21:08:06.267Z,12.70
2019-03-08T21:10:36.817Z,12.60
2019-03-08T21:13:07.440Z,12.60
2019-03-08T21:15:38.084Z,12.60
2019-03-08T21:18:08.545Z,12.70
2019-03-08T21:20:39.025Z,12.70
2019-03-08T21:23:09.178Z,12.80
2019-03-08T21:25:39.415Z,12.80
2019-03-08T21:28:09.563Z,12.80
2019-03-08T21:30:39.816Z,12.70
2019-03-08T21:33:10.391Z,13.00
2019-03-08T21:35:41.625Z,13.60
2019-03-08T21:38:12.556Z,14.30
2019-03-08T21:40:43.145Z,14.90
2019-03-08T21:43:13.249Z,15.40
2019-03-08T21:45:43.588Z,15.80
2019-03-08T21:48:13.736Z,16.10
2019-03-08T21:50:43.896Z,16.30
2019-03-08T21:53:13.973Z,16.50
2019-03-08T21:55:44.133Z,16.70
2019-03-08T21:58:14.279Z,16.80
2019-03-08T22:00:44.492Z,16.90
2019-03-08T22:03:14.679Z,17.00
2019-03-08T22:05:44.827Z,17.00
2019-03-08T22:08:17.719Z,17.10
2019-03-08T22:10:48.904Z,17.10
2019-03-08T22:13:19.041Z,17.10
2019-03-08T22:15:49.647Z,17.10
2019-03-08T22:18:19.794Z,17.10
2019-03-08T22:20:50.267Z,17.10
2019-03-08T22:23:20.560Z,17.10
2019-03-08T22:25:50.630Z,17.10
2019-03-08T22:28:20.735Z,17.10
2019-03-08T22:30:51.273Z,17.10
2019-03-08T22:33:21.775Z,17.10
2019-03-08T22:35:51.835Z,17.10
2019-03-08T22:38:22.269Z,17.10
2019-03-08T22:40:52.364Z,17.10
2019-03-08T22:43:22.484Z,17.10
2019-03-08T22:45:53.232Z,17.00
2019-03-08T22:48:23.665Z,17.00
2019-03-08T22:50:54.069Z,17.00
2019-03-08T22:53:24.624Z,16.90
2019-03-08T22:55:54.750Z,16.90
2019-03-08T22:58:24.960Z,16.80
2019-03-08T23:01:07.790Z,16.80
2019-03-08T23:03:39.519Z,16.80
2019-03-08T23:06:09.756Z,16.80
2019-03-08T23:08:39.843Z,16.80
2019-03-08T23:11:10.117Z,16.70
2019-03-08T23:13:40.270Z,16.70
2019-03-08T23:16:10.567Z,16.70
2019-03-08T23:18:41.098Z,16.70
2019-03-08T23:21:11.295Z,16.70
2019-03-08T23:23:41.452Z,16.70
2019-03-08T23:26:11.674Z,16.70
2019-03-08T23:28:43.410Z,16.70
2019-03-08T23:31:17.839Z,16.70
2019-03-08T23:33:47.935Z,16.70
2019-03-08T23:36:18.096Z,16.60
2019-03-08T23:38:48.247Z,16.60
2019-03-08T23:41:18.467Z,16.60
2019-03-08T23:43:48.535Z,16.60
2019-03-08T23:46:18.957Z,16.50
2019-03-08T23:48:49.098Z,16.60
2019-03-08T23:51:19.537Z,16.60
2019-03-08T23:53:49.860Z,16.60
2019-03-08T23:56:20.073Z,16.50
2019-03-08T23:58:50.167Z,16.50
